createdAt,value
2018-02-12T00:02:18.216Z,16.50
2018-02-12T00:04:45.759Z,16.20
2018-02-12T00:07:13.293Z,14.30
2018-02-12T00:09:41.486Z,14.20
2018-02-12T00:12:09.154Z,14.93
2018-02-12T00:14:36.716Z,14.73
2018-02-12T00:17:04.263Z,14.10
2018-02-12T00:19:31.891Z,15.10
2018-02-12T00:22:00.225Z,13.60
2018-02-12T00:24:27.792Z,15.53
2018-02-12T00:26:55.337Z,15.30
2018-02-12T00:29:22.903Z,15.90
2018-02-12T00:31:50.504Z,15.70
2018-02-12T00:34:18.880Z,14.03
2018-02-12T00:36:47.521Z,15.17
2018-02-12T00:39:15.996Z,15.57
2018-02-12T00:41:43.584Z,15.40
2018-02-12T00:44:12.638Z,15.93
2018-02-12T00:46:40.247Z,17.57
2018-02-12T00:49:07.786Z,16.97
2018-02-12T00:51:35.337Z,16.13
2018-02-12T00:54:02.943Z,16.93
2018-02-12T00:56:31.771Z,18.13
2018-02-12T00:58:59.373Z,17.83
2018-02-12T01:01:26.989Z,17.30
2018-02-12T01:03:54.527Z,18.90
2018-02-12T01:06:22.058Z,18.07
2018-02-12T01:08:50.438Z,18.10
2018-02-12T01:11:18.027Z,17.20
2018-02-12T01:13:45.609Z,18.67
2018-02-12T01:16:13.224Z,17.93
2018-02-12T01:18:40.782Z,18.63
2018-02-12T01:21:09.684Z,18.30
2018-02-12T01:23:38.000Z,18.03
2018-02-12T01:26:05.559Z,18.07
2018-02-12T01:28:33.112Z,17.70
2018-02-12T01:31:00.658Z,18.53
2018-02-12T01:33:28.242Z,18.20
2018-02-12T01:35:55.809Z,17.07
2018-02-12T01:38:23.368Z,17.17
2018-02-12T01:40:50.950Z,17.93
2018-02-12T01:43:18.471Z,16.90
2018-02-12T01:45:46.036Z,14.90
2018-02-12T01:48:13.631Z,15.13
2018-02-12T01:50:41.155Z,14.30
2018-02-12T01:53:08.722Z,14.00
2018-02-12T01:55:36.271Z,15.27
2018-02-12T01:58:03.843Z,13.80
2018-02-12T02:00:31.445Z,13.80
2018-02-12T02:02:58.982Z,14.37
2018-02-12T02:05:26.555Z,13.80
2018-02-12T02:07:54.142Z,13.10
2018-02-12T02:10:21.692Z,13.80
2018-02-12T02:12:50.030Z,13.50
2018-02-12T02:15:18.532Z,13.50
2018-02-12T02:17:46.118Z,14.03
2018-02-12T02:20:14.437Z,13.87
2018-02-12T02:22:42.000Z,14.37
2018-02-12T02:25:09.557Z,14.30
2018-02-12T02:27:37.129Z,13.67
2018-02-12T02:30:04.909Z,15.13
2018-02-12T02:32:32.439Z,15.20
2018-02-12T02:34:59.958Z,15.40
2018-02-12T02:37:28.329Z,14.20
2018-02-12T02:39:56.656Z,15.60
2018-02-12T02:42:24.963Z,14.73
2018-02-12T02:44:52.510Z,15.33
2018-02-12T02:47:20.074Z,14.20
2018-02-12T02:49:47.674Z,14.60
2018-02-12T02:52:15.221Z,15.20
2018-02-12T02:54:42.771Z,15.10
2018-02-12T02:57:10.365Z,14.53
2018-02-12T02:59:39.107Z,14.37
2018-02-12T03:02:06.853Z,14.27
2018-02-12T03:04:34.390Z,15.07
2018-02-12T03:07:01.935Z,14.00
2018-02-12T03:09:29.538Z,13.47
2018-02-12T03:11:57.977Z,14.93
2018-02-12T03:14:25.576Z,14.87
2018-02-12T03:16:53.085Z,14.63
2018-02-12T03:19:20.667Z,15.40
2018-02-12T03:21:48.265Z,14.97
2018-02-12T03:24:15.811Z,14.40
2018-02-12T03:26:43.383Z,14.10
2018-02-12T03:29:10.918Z,13.90
2018-02-12T03:31:38.518Z,13.80
2018-02-12T03:34:06.702Z,13.40
2018-02-12T03:36:34.256Z,13.57
2018-02-12T03:39:04.703Z,13.53
2018-02-12T03:41:33.051Z,12.40
2018-02-12T03:44:01.524Z,12.43
2018-02-12T03:46:29.070Z,13.10
2018-02-12T03:48:56.661Z,12.37
2018-02-12T03:51:24.231Z,11.50
2018-02-12T03:53:51.822Z,12.63
2018-02-12T03:56:19.376Z,12.63
2018-02-12T03:58:46.935Z,12.20
2018-02-12T04:01:15.252Z,11.47
2018-02-12T04:03:42.803Z,12.83
2018-02-12T04:06:11.020Z,11.50
2018-02-12T04:08:39.424Z,11.97
2018-02-12T04:11:07.770Z,11.97
2018-02-12T04:13:35.328Z,13.33
2018-02-12T04:16:03.175Z,12.43
2018-02-12T04:18:30.730Z,12.10
2018-02-12T04:20:58.282Z,13.10
2018-02-12T04:23:27.106Z,12.23
2018-02-12T04:25:54.740Z,12.17
2018-02-12T04:28:22.326Z,12.23
2018-02-12T04:30:49.895Z,12.57
2018-02-12T04:33:17.457Z,13.70
2018-02-12T04:35:45.006Z,14.20
2018-02-12T04:38:12.538Z,13.40
2018-02-12T04:40:40.090Z,13.10
2018-02-12T04:43:07.646Z,13.23
2018-02-12T04:45:35.192Z,15.40
2018-02-12T04:48:03.127Z,12.60
2018-02-12T04:50:30.838Z,13.60
2018-02-12T04:52:58.502Z,12.87
2018-02-12T04:55:26.039Z,13.23
2018-02-12T04:57:53.584Z,14.00
2018-02-12T05:00:22.259Z,14.03
2018-02-12T05:02:49.784Z,13.70
2018-02-12T05:05:17.315Z,14.63
2018-02-12T05:07:44.903Z,16.50
2018-02-12T05:10:12.485Z,18.10
2018-02-12T05:12:40.020Z,14.63
2018-02-12T05:15:07.637Z,14.73
2018-02-12T05:17:36.018Z,13.57
2018-02-12T05:20:04.190Z,15.80
2018-02-12T05:22:32.473Z,14.67
2018-02-12T05:25:01.367Z,13.13
2018-02-12T05:27:28.943Z,14.23
2018-02-12T05:29:56.476Z,14.90
2018-02-12T05:32:25.424Z,15.97
2018-02-12T05:34:52.983Z,17.43
2018-02-12T05:37:20.601Z,16.73
2018-02-12T05:39:48.130Z,15.90
2018-02-12T05:42:15.692Z,17.63
2018-02-12T05:44:43.260Z,15.23
2018-02-12T05:47:10.838Z,15.30
2018-02-12T05:49:39.198Z,14.23
2018-02-12T05:52:07.487Z,15.20
2018-02-12T05:54:36.278Z,14.27
2018-02-12T05:57:04.474Z,13.90
2018-02-12T05:59:32.090Z,14.70
2018-02-12T06:02:00.184Z,15.40
2018-02-12T06:04:28.529Z,14.87
2018-02-12T06:06:58.101Z,18.53
2018-02-12T06:09:27.756Z,19.13
2018-02-12T06:11:57.469Z,15.63
2018-02-12T06:14:26.792Z,17.00
2018-02-12T06:16:54.480Z,14.10
2018-02-12T06:19:22.047Z,14.10
2018-02-12T06:21:49.643Z,14.80
2018-02-12T06:24:17.193Z,14.00
2018-02-12T06:26:45.249Z,13.10
2018-02-12T06:29:12.843Z,12.27
2018-02-12T06:31:41.266Z,15.20
2018-02-12T06:34:08.876Z,15.23
2018-02-12T06:36:37.182Z,15.53
2018-02-12T06:39:05.048Z,15.10
2018-02-12T06:41:33.421Z,14.07
2018-02-12T06:44:01.714Z,13.87
2018-02-12T06:46:29.387Z,13.60
2018-02-12T06:49:00.587Z,13.70
2018-02-12T06:51:28.622Z,12.90
2018-02-12T06:53:56.223Z,15.30
2018-02-12T06:56:23.773Z,14.20
2018-02-12T07:11:46.386Z,13.50
2018-02-12T07:14:14.604Z,14.50
2018-02-12T07:16:42.936Z,13.60
2018-02-12T07:19:10.476Z,14.47
2018-02-12T07:21:38.176Z,15.30
2018-02-12T07:24:06.638Z,14.87
2018-02-12T07:26:34.200Z,14.43
2018-02-12T07:29:01.750Z,13.67
2018-02-12T07:31:29.325Z,14.27
2018-02-12T07:33:56.896Z,14.37
2018-02-12T07:36:24.467Z,14.20
2018-02-12T07:38:52.016Z,15.00
2018-02-12T07:41:19.603Z,15.50
2018-02-12T07:43:47.134Z,14.93
2018-02-12T07:46:14.733Z,14.57
2018-02-12T07:48:43.429Z,15.40
2018-02-12T07:51:10.978Z,15.17
2018-02-12T07:53:38.538Z,15.03
2018-02-12T07:56:07.688Z,14.17
2018-02-12T07:58:35.235Z,14.37
2018-02-12T08:01:02.803Z,13.80
2018-02-12T08:03:30.346Z,14.70
2018-02-12T08:05:57.943Z,14.80
2018-02-12T08:08:25.487Z,13.90
2018-02-12T08:10:53.073Z,13.93
2018-02-12T08:13:20.712Z,13.97
2018-02-12T08:15:49.082Z,14.80
2018-02-12T08:18:16.664Z,12.77
2018-02-12T08:20:44.247Z,13.10
2018-02-12T08:23:11.832Z,14.53
2018-02-12T08:25:39.446Z,17.50
2018-02-12T08:28:07.120Z,12.97
2018-02-12T08:30:34.876Z,14.40
2018-02-12T08:33:02.508Z,14.00
2018-02-12T08:35:30.130Z,13.03
2018-02-12T08:37:58.461Z,13.20
2018-02-12T08:40:26.037Z,13.60
2018-02-12T08:42:53.599Z,11.53
2018-02-12T08:45:21.260Z,12.30
2018-02-12T08:47:48.803Z,12.13
2018-02-12T08:50:17.854Z,12.90
2018-02-12T08:52:45.470Z,12.83
2018-02-12T08:55:13.053Z,12.77
2018-02-12T08:57:40.609Z,12.30
2018-02-12T09:00:08.984Z,11.93
2018-02-12T09:02:36.619Z,12.97
2018-02-12T09:05:05.100Z,11.63
2018-02-12T09:07:32.824Z,12.13
2018-02-12T09:10:00.469Z,12.00
2018-02-12T09:12:28.014Z,11.70
2018-02-12T09:14:55.589Z,12.97
2018-02-12T09:17:23.306Z,12.47
2018-02-12T09:19:50.885Z,13.13
2018-02-12T09:22:18.487Z,12.90
2018-02-12T09:24:46.666Z,12.83
2018-02-12T09:27:15.082Z,11.50
2018-02-12T09:29:42.740Z,11.13
2018-02-12T09:32:10.340Z,11.70
2018-02-12T09:34:37.919Z,11.40
2018-02-12T09:37:06.279Z,10.93
2018-02-12T09:39:33.828Z,12.30
2018-02-12T09:42:01.415Z,13.03
2018-02-12T09:44:30.673Z,12.83
2018-02-12T09:46:58.848Z,12.03
2018-02-12T09:49:26.456Z,11.90
2018-02-12T09:51:54.061Z,11.80
2018-02-12T09:54:21.622Z,10.77
2018-02-12T09:56:49.199Z,11.33
2018-02-12T09:59:17.428Z,12.43
2018-02-12T10:01:45.009Z,11.27
2018-02-12T10:04:12.597Z,11.57
2018-02-12T10:06:40.160Z,12.53
2018-02-12T10:09:07.973Z,12.67
2018-02-12T10:11:36.398Z,10.13
2018-02-12T10:14:05.997Z,11.60
2018-02-12T10:16:36.615Z,11.40
2018-02-12T10:19:04.164Z,13.37
2018-02-12T10:21:31.786Z,11.40
2018-02-12T10:24:00.218Z,12.00
2018-02-12T10:26:27.772Z,10.20
2018-02-12T10:28:55.362Z,11.03
2018-02-12T10:31:23.620Z,11.00
2018-02-12T10:33:51.179Z,11.23
2018-02-12T10:36:19.888Z,11.80
2018-02-12T10:38:47.646Z,11.40
2018-02-12T10:41:15.280Z,11.57
2018-02-12T10:43:42.873Z,11.50
2018-02-12T10:46:10.497Z,10.60
2018-02-12T10:48:38.331Z,10.90
2018-02-12T10:51:06.654Z,10.57
2018-02-12T10:53:35.651Z,10.73
2018-02-12T10:56:04.532Z,11.20
2018-02-12T10:58:32.150Z,11.30
2018-02-12T11:01:02.344Z,11.93
2018-02-12T11:03:30.137Z,11.30
2018-02-12T11:05:57.724Z,11.77
2018-02-12T11:08:25.345Z,11.27
2018-02-12T11:10:53.951Z,12.00
2018-02-12T11:13:22.391Z,11.20
2018-02-12T11:15:50.044Z,11.13
2018-02-12T11:18:17.931Z,12.40
2018-02-12T11:20:45.547Z,12.30
2018-02-12T11:23:13.459Z,10.83
2018-02-12T11:25:41.112Z,11.03
2018-02-12T11:28:08.703Z,10.50
2018-02-12T11:30:37.515Z,10.03
2018-02-12T11:33:05.116Z,11.70
2018-02-12T11:35:32.641Z,10.90
2018-02-12T11:38:00.309Z,11.17
2018-02-12T11:40:27.883Z,10.73
2018-02-12T11:42:55.445Z,12.03
2018-02-12T11:45:23.015Z,11.20
2018-02-12T11:47:50.567Z,10.33
2018-02-12T11:50:18.134Z,10.57
2018-02-12T11:52:45.737Z,10.03
2018-02-12T11:55:14.124Z,10.97
2018-02-12T11:57:41.825Z,10.63
2018-02-12T12:00:09.694Z,10.93
2018-02-12T12:02:38.147Z,11.10
2018-02-12T12:05:05.862Z,11.37
2018-02-12T12:07:33.445Z,10.40
2018-02-12T12:10:01.030Z,10.80
2018-02-12T12:12:28.583Z,11.80
2018-02-12T12:14:57.274Z,11.00
2018-02-12T12:17:25.627Z,10.90
2018-02-12T12:19:53.246Z,10.70
2018-02-12T12:22:21.623Z,10.20
2018-02-12T12:24:49.164Z,10.30
2018-02-12T12:27:16.938Z,11.30
2018-02-12T12:29:44.602Z,11.40
2018-02-12T12:32:12.391Z,10.23
2018-02-12T12:34:39.982Z,10.30
2018-02-12T12:37:08.811Z,9.70
2018-02-12T12:39:37.944Z,9.63
2018-02-12T12:42:06.022Z,9.20
2018-02-12T12:44:33.869Z,10.67
2018-02-12T12:47:01.678Z,10.23
2018-02-12T12:49:29.422Z,10.00
2018-02-12T12:51:57.056Z,9.47
2018-02-12T12:54:27.296Z,10.17
2018-02-12T12:56:55.153Z,8.90
2018-02-12T12:59:24.160Z,9.90
2018-02-12T13:01:51.950Z,9.10
2018-02-12T13:04:19.522Z,10.97
2018-02-12T13:06:47.192Z,8.93
2018-02-12T13:09:15.526Z,7.93
2018-02-12T13:11:43.712Z,10.00
2018-02-12T13:14:11.285Z,9.10
2018-02-12T13:16:38.927Z,10.70
2018-02-12T13:19:06.563Z,8.30
2018-02-12T13:21:36.464Z,9.60
2018-02-12T13:24:05.786Z,10.23
2018-02-12T13:26:33.380Z,10.17
2018-02-12T13:29:00.989Z,9.07
2018-02-12T13:31:29.397Z,8.53
2018-02-12T13:33:58.276Z,9.07
2018-02-12T13:36:28.391Z,8.70
2018-02-12T13:38:55.923Z,7.80
2018-02-12T13:41:23.466Z,8.40
2018-02-12T13:43:51.025Z,8.27
2018-02-12T13:46:19.358Z,8.53
2018-02-12T13:48:47.290Z,9.30
2018-02-12T13:51:14.983Z,8.80
2018-02-12T13:53:42.687Z,8.50
2018-02-12T13:56:10.270Z,9.53
2018-02-12T13:58:37.870Z,8.90
2018-02-12T14:01:05.444Z,9.03
2018-02-12T14:03:33.541Z,8.50
2018-02-12T14:06:01.118Z,8.40
2018-02-12T14:08:28.679Z,8.43
2018-02-12T14:10:56.966Z,8.03
2018-02-12T14:13:24.510Z,8.60
2018-02-12T14:15:53.777Z,8.80
2018-02-12T14:18:21.533Z,7.97
2018-02-12T14:20:49.994Z,7.83
2018-02-12T14:23:17.564Z,7.03
2018-02-12T14:25:45.092Z,9.00
2018-02-12T14:28:13.092Z,8.97
2018-02-12T14:30:40.614Z,7.87
2018-02-12T14:33:08.144Z,8.70
2018-02-12T14:35:36.287Z,7.23
2018-02-12T14:38:03.821Z,8.23
2018-02-12T14:40:31.354Z,8.07
2018-02-12T14:42:59.684Z,7.90
2018-02-12T14:45:27.451Z,7.60
2018-02-12T14:47:54.998Z,8.60
2018-02-12T14:50:22.587Z,8.73
2018-02-12T14:52:50.145Z,7.97
2018-02-12T14:55:17.703Z,8.77
2018-02-12T14:57:45.274Z,9.33
2018-02-12T15:00:14.066Z,9.20
2018-02-12T15:02:42.532Z,7.90
2018-02-12T15:05:10.059Z,9.70
2018-02-12T15:07:37.669Z,8.30
2018-02-12T15:10:06.517Z,8.40
2018-02-12T15:12:34.588Z,9.97
2018-02-12T15:15:02.821Z,9.27
2018-02-12T15:17:30.349Z,8.33
2018-02-12T15:19:57.939Z,10.20
2018-02-12T15:22:26.218Z,9.67
2018-02-12T15:24:57.026Z,7.30
2018-02-12T15:27:25.450Z,4.60
2018-02-12T15:29:53.056Z,4.20
2018-02-12T15:32:20.588Z,3.63
2018-02-12T15:34:48.109Z,4.60
2018-02-12T15:37:15.709Z,4.73
2018-02-12T15:39:43.284Z,3.87
2018-02-12T15:42:11.479Z,4.70
2018-02-12T15:44:39.879Z,4.77
2018-02-12T15:47:07.418Z,5.30
2018-02-12T15:49:35.770Z,5.40
2018-02-12T15:52:03.277Z,5.23
2018-02-12T15:54:30.828Z,4.60
2018-02-12T15:56:58.389Z,5.10
2018-02-12T15:59:28.821Z,4.30
2018-02-12T16:01:56.365Z,4.60
2018-02-12T16:04:23.968Z,4.67
2018-02-12T16:06:51.545Z,4.57
2018-02-12T16:09:19.456Z,4.80
2018-02-12T16:11:47.007Z,5.50
2018-02-12T16:14:14.568Z,6.90
2018-02-12T16:16:42.683Z,5.07
2018-02-12T16:19:11.023Z,5.60
2018-02-12T16:21:38.597Z,5.67
2018-02-12T16:24:06.228Z,5.93
2018-02-12T16:26:33.829Z,6.80
2018-02-12T16:29:03.136Z,6.20
2018-02-12T16:31:31.527Z,5.90
2018-02-12T16:33:59.911Z,6.20
2018-02-12T16:36:27.552Z,7.77
2018-02-12T16:38:55.141Z,8.87
2018-02-12T16:41:22.744Z,11.10
2018-02-12T16:43:50.381Z,8.30
2018-02-12T16:46:18.025Z,12.20
2018-02-12T16:48:45.687Z,6.30
2018-02-12T16:51:13.269Z,5.90
2018-02-12T16:53:41.288Z,6.03
2018-02-12T16:56:09.072Z,8.03
2018-02-12T16:58:38.198Z,5.60
2018-02-12T17:01:05.740Z,8.30
2018-02-12T17:03:33.367Z,9.20
2018-02-12T17:06:00.929Z,5.67
2018-02-12T17:08:29.364Z,6.57
2018-02-12T17:10:56.957Z,6.10
2018-02-12T17:13:24.521Z,5.57
2018-02-12T17:15:52.138Z,8.10
2018-02-12T17:18:19.683Z,7.57
2018-02-12T17:20:47.207Z,5.43
2018-02-12T17:23:14.934Z,6.43
2018-02-12T17:25:42.462Z,6.20
2018-02-12T17:28:10.070Z,6.50
2018-02-12T17:30:38.703Z,5.87
2018-02-12T17:33:06.356Z,6.67
2018-02-12T17:35:33.909Z,6.60
2018-02-12T17:38:02.258Z,5.30
2018-02-12T17:40:29.786Z,6.77
2018-02-12T17:42:57.722Z,13.20
2018-02-12T17:45:26.028Z,7.13
2018-02-12T17:47:53.605Z,7.93
2018-02-12T17:50:21.570Z,8.00
2018-02-12T17:52:49.101Z,5.90
2018-02-12T17:55:16.722Z,7.20
2018-02-12T17:57:44.345Z,8.80
2018-02-12T18:00:12.482Z,6.57
2018-02-12T18:02:40.986Z,7.53
2018-02-12T18:05:10.001Z,6.77
2018-02-12T18:07:37.528Z,6.93
2018-02-12T18:10:06.700Z,7.10
2018-02-12T18:12:34.374Z,7.97
2018-02-12T18:15:02.139Z,9.40
2018-02-12T18:17:30.491Z,9.10
2018-02-12T18:19:58.081Z,9.13
2018-02-12T18:22:26.393Z,9.40
2018-02-12T18:24:54.003Z,9.07
2018-02-12T18:27:22.512Z,9.37
2018-02-12T18:29:50.127Z,11.87
2018-02-12T18:32:17.692Z,13.73
2018-02-12T18:34:45.231Z,11.30
2018-02-12T18:37:13.727Z,10.43
2018-02-12T18:39:41.778Z,9.87
2018-02-12T18:42:11.100Z,10.60
2018-02-12T18:44:38.712Z,11.23
2018-02-12T18:47:06.274Z,9.60
2018-02-12T18:49:34.551Z,9.30
2018-02-12T18:52:02.933Z,9.73
2018-02-12T18:54:30.557Z,9.40
2018-02-12T18:56:58.210Z,9.40
2018-02-12T18:59:25.807Z,11.23
2018-02-12T19:01:53.550Z,10.97
2018-02-12T19:04:21.294Z,10.17
2018-02-12T19:06:49.448Z,8.70
2018-02-12T19:09:17.795Z,9.00
2018-02-12T19:11:45.488Z,8.60
2018-02-12T19:14:13.953Z,8.80
2018-02-12T19:16:42.784Z,10.17
2018-02-12T19:19:10.364Z,9.07
2018-02-12T19:21:38.921Z,10.00
2018-02-12T19:24:07.313Z,9.90
2018-02-12T19:26:34.917Z,8.90
2018-02-12T19:29:02.598Z,10.83
2018-02-12T19:31:30.137Z,11.50
2018-02-12T19:33:57.777Z,9.63
2018-02-12T19:36:26.594Z,8.73
2018-02-12T19:38:54.201Z,9.53
2018-02-12T19:41:21.841Z,9.30
2018-02-12T19:43:49.401Z,9.00
2018-02-12T19:46:17.086Z,9.60
2018-02-12T19:48:45.107Z,8.70
2018-02-12T19:51:12.789Z,9.00
2018-02-12T19:53:40.458Z,8.93
2018-02-12T19:56:08.067Z,8.03
2018-02-12T19:58:35.883Z,8.37
2018-02-12T20:01:03.647Z,8.80
2018-02-12T20:03:31.280Z,8.80
2018-02-12T20:05:59.531Z,9.23
2018-02-12T20:08:28.083Z,8.73
2018-02-12T20:10:56.823Z,8.70
2018-02-12T20:13:24.839Z,9.23
2018-02-12T20:15:52.450Z,8.03
2018-02-12T20:18:20.761Z,9.60
2018-02-12T20:20:48.351Z,8.40
2018-02-12T20:23:16.227Z,18.90
2018-02-12T20:25:43.851Z,30.60
2018-02-12T20:28:11.476Z,28.77
2018-02-12T20:30:40.401Z,18.07
2018-02-12T20:33:08.011Z,16.60
2018-02-12T20:35:36.445Z,15.30
2018-02-12T20:38:04.108Z,13.73
2018-02-12T20:40:31.702Z,18.57
2018-02-12T20:42:59.485Z,21.10
2018-02-12T20:45:27.071Z,15.93
2018-02-12T20:57:36.190Z,11.17
2018-02-12T21:00:04.332Z,8.87
2018-02-12T21:02:31.957Z,9.77
2018-02-12T21:04:59.594Z,9.90
2018-02-12T21:07:27.183Z,9.13
2018-02-12T21:09:54.757Z,9.60
2018-02-12T21:12:23.124Z,9.80
2018-02-12T21:14:50.894Z,9.37
2018-02-12T21:17:19.322Z,10.00
2018-02-12T21:19:46.941Z,10.43
2018-02-12T21:22:16.525Z,10.23
2018-02-12T21:24:46.363Z,9.20
2018-02-12T21:27:14.712Z,13.40
2018-02-12T21:29:42.354Z,10.30
2018-02-12T21:32:10.189Z,10.60
2018-02-12T21:34:39.564Z,10.07
2018-02-12T21:37:07.879Z,9.50
2018-02-12T21:39:36.341Z,11.30
2018-02-12T21:42:03.929Z,10.73
2018-02-12T21:44:31.490Z,11.27
2018-02-12T21:46:59.180Z,10.80
2018-02-12T21:49:26.744Z,14.27
2018-02-12T21:51:55.084Z,12.80
2018-02-12T21:54:22.698Z,12.30
2018-02-12T21:56:50.323Z,9.90
2018-02-12T21:59:17.910Z,11.40
2018-02-12T22:01:46.245Z,11.03
2018-02-12T22:04:14.701Z,10.23
2018-02-12T22:06:43.097Z,12.47
2018-02-12T22:09:10.712Z,9.27
2018-02-12T22:11:38.330Z,10.70
2018-02-12T22:14:05.887Z,9.27
2018-02-12T22:16:33.515Z,10.93
2018-02-12T22:19:01.873Z,9.50
2018-02-12T22:21:29.467Z,10.53
2018-02-12T22:23:57.789Z,10.40
2018-02-12T22:26:25.876Z,10.00
2018-02-12T22:28:53.609Z,10.07
2018-02-12T22:31:21.968Z,9.17
2018-02-12T22:33:49.845Z,10.53
2018-02-12T22:36:17.524Z,10.80
2018-02-12T22:38:45.809Z,9.40
2018-02-12T22:41:13.362Z,11.13
2018-02-12T22:43:40.951Z,10.83
2018-02-12T22:46:08.547Z,10.37
2018-02-12T22:48:36.157Z,10.07
2018-02-12T22:51:03.764Z,10.77
2018-02-12T22:53:32.580Z,10.87
2018-02-12T22:56:00.249Z,10.00
2018-02-12T22:58:27.809Z,10.00
2018-02-12T23:00:55.460Z,9.93
2018-02-12T23:03:23.021Z,10.43
2018-02-12T23:15:34.035Z,10.43
2018-02-12T23:18:02.366Z,9.97
2018-02-12T23:20:29.934Z,11.17
2018-02-12T23:22:58.421Z,9.77
2018-02-12T23:25:25.950Z,10.67
2018-02-12T23:27:53.859Z,10.07
2018-02-12T23:30:21.423Z,9.90
2018-02-12T23:32:48.996Z,10.53
2018-02-12T23:35:17.034Z,10.20
2018-02-12T23:37:45.330Z,10.63
2018-02-12T23:40:12.934Z,10.30
2018-02-12T23:42:40.474Z,10.53
2018-02-12T23:45:08.899Z,11.00
2018-02-12T23:47:36.434Z,10.53
2018-02-12T23:50:04.094Z,10.37
2018-02-12T23:52:31.652Z,10.20
2018-02-12T23:54:59.204Z,10.90
2018-02-12T23:57:26.755Z,9.33
2018-02-12T23:59:55.544Z,9.70
